Latest Weather Observations for Young

IDN60801

Issued at 2:34 am EST Saturday 1 October 2016 (issued every 30 minutes, with the page automatically refreshed every 10 minutes)

About weather observations | Map of weather stations | Latest weather observations for NSW | Other Formats
Station Details ID: 073138 Name: YOUNG AIRPORT Lat: -34.25 Lon: 148.25 Height: 379.6 m
Data from the previous 72 hours. | See also: Recent months at Young
Date/Time
EST
Temp
°C
App
Temp
°C
Dew
Point
°C
Rel
Hum
%
Delta-T
°C
Wind Press
QNH
hPa
Press
MSL
hPa
Rain since
9am
mm
Dir  Spd
km/h
Gust
km/h
Spd
kts
Gust
kts
01/02:30am 10.0 6.8 9.9 99 0.1 WNW 17 26 9 14 1003.5 1003.6 24.0
01/02:00am 10.2 6.6 9.7 97 0.3 NW 19 35 10 19 1003.2 1003.3 23.4
01/01:30am 10.2 5.7 9.9 98 0.2 NW 24 35 13 19 1003.3 1003.4 23.0
01/01:00am 10.3 5.0 9.8 97 0.3 NW 28 46 15 25 1003.0 1003.1 22.4
01/12:30am 10.2 6.4 9.7 97 0.3 NW 20 33 11 18 1002.9 1003.0 21.6
01/12:00am 10.3 6.7 9.8 97 0.3 NW 19 32 10 17 1002.9 1003.0 21.4
 
Date/Time
EST
Temp
°C
App
Temp
°C
Dew
Point
°C
Rel
Hum
%
Delta-T
°C
Wind Press
QNH
hPa
Press
MSL
hPa
Rain since
9am
mm
Dir  Spd
km/h
Gust
km/h
Spd
kts
Gust
kts
30/11:30pm 10.0 6.2 9.9 99 0.1 NW 20 33 11 18 1002.6 1002.6 21.4
30/11:00pm 10.0 5.0 9.5 97 0.3 NW 26 39 14 21 1002.6 1002.6 20.6
30/10:30pm 9.6 5.9 9.5 99 0.1 NW 19 32 10 17 1002.8 1002.9 20.6
30/10:00pm 8.6 5.3 8.0 96 0.3 W 15 32 8 17 1002.8 1002.9 18.0
30/09:30pm 9.2 5.4 9.1 99 0.1 NW 19 26 10 14 1002.3 1002.3 15.6
30/09:00pm 9.0 5.2 8.9 99 0.1 NNW 19 28 10 15 1002.4 1002.4 15.4
30/08:30pm 8.9 6.2 8.8 99 0.0 NNW 13 20 7 11 1002.5 1002.5 14.6
30/08:00pm 9.0 6.6 8.6 97 0.2 NW 11 17 6 9 1002.4 1002.4 12.8
30/07:30pm 9.2 6.8 8.6 96 0.3 NW 11 17 6 9 1002.3 1002.3 10.6
30/07:00pm 9.5 5.5 8.3 92 0.6 WNW 19 30 10 16 1002.2 1002.2 9.2
30/06:30pm 9.5 5.9 8.3 92 0.6 NW 17 26 9 14 1001.6 1001.6 7.8
30/06:00pm 9.6 7.1 8.0 90 0.8 NW 11 17 6 9 1001.1 1001.1 7.4
30/05:30pm 9.8 6.4 7.6 86 1.1 WNW 15 22 8 12 1000.9 1000.9 7.4
30/05:00pm 9.6 6.0 8.4 92 0.6 NW 17 22 9 12 1000.5 1000.5 7.4
30/04:30pm 9.3 4.1 7.1 86 1.1 WNW 24 37 13 20 1000.2 1000.2 7.4
30/04:00pm 10.7 5.6 7.6 81 1.5 WNW 24 41 13 22 999.6 999.6 6.8
30/03:30pm 8.8 3.5 6.9 88 0.9 W 24 43 13 23 999.4 999.4 6.8
30/03:15pm 9.2 3.2 7.0 86 1.1 WNW 28 50 15 27 999.2 999.2 5.8
30/03:00pm 11.7 7.6 8.6 81 1.6 NW 20 37 11 20 998.5 998.5 5.6
30/02:30pm 10.5 5.3 8.8 89 0.9 WNW 26 39 14 21 998.5 998.5 5.2
30/02:00pm 10.1 4.9 9.0 93 0.6 NW 26 43 14 23 998.4 998.4 4.4
30/01:30pm 9.9 5.2 9.1 95 0.4 NW 24 39 13 21 998.1 998.0 3.0
30/01:07pm 10.6 5.2 9.5 93 0.6 NW 28 46 15 25 997.9 997.9 2.0
30/01:00pm 9.8 3.9 8.9 94 0.5 NNW 30 46 16 25 997.9 997.9 2.0
30/12:30pm 10.1 4.6 9.0 93 0.6 NW 28 46 15 25 997.8 997.8 1.4
30/12:29pm 10.0 4.4 8.8 92 0.6 NW 28 46 15 25 997.8 997.8 1.4
30/12:00pm 10.7 4.4 9.0 89 0.9 NW 32 48 17 26 997.7 997.7 1.2
30/11:35am 9.2 3.0 7.8 91 0.7 NW 30 48 16 26 997.6 997.6 1.2
30/11:30am 9.7 3.6 8.3 91 0.7 NW 30 43 16 23 997.4 997.4 0.8
30/11:21am 10.5 5.1 9.6 94 0.5 NW 28 46 15 25 997.4 997.4 0.8
30/11:00am 9.5 3.6 7.4 87 1.0 NW 28 43 15 23 997.5 997.5 0.4
30/10:40am 9.5 3.8 8.3 92 0.6 NW 28 46 15 25 997.3 997.3 0.4
30/10:30am 9.2 3.1 8.1 93 0.5 NW 30 44 16 24 997.4 997.4 0.4
30/10:17am 8.6 2.9 8.2 97 0.2 NNW 28 46 15 25 997.4 997.4 0.4
30/10:00am 8.5 4.0 8.4 99 0.0 NNW 22 33 12 18 997.4 997.4 0.4
30/09:30am 8.2 3.2 8.1 99 0.0 NNW 24 35 13 19 997.5 997.5 0.0
30/09:00am 8.0 3.0 7.9 99 0.0 NNW 24 35 13 19 997.3 997.3 15.8
30/08:30am 7.6 2.1 7.5 99 0.0 N 26 39 14 21 997.3 997.3 14.8
30/08:00am 7.6 2.1 7.5 99 0.0 NNW 26 37 14 20 997.1 997.1 13.0
30/07:30am 7.5 2.0 7.4 99 0.0 N 26 35 14 19 996.8 996.8 11.6
30/07:00am 7.3 2.1 7.2 99 0.0 NNW 24 39 13 21 996.6 996.6 10.2
30/06:30am 7.5 2.0 7.4 99 0.0 N 26 37 14 20 996.4 996.4 8.8
30/06:00am 7.3 1.7 7.0 98 0.1 N 26 35 14 19 996.1 996.0 8.4
30/05:30am 7.3 1.7 7.2 99 0.0 N 26 37 14 20 995.9 995.8 7.6
30/05:00am 7.3 0.9 6.9 97 0.2 NNW 30 48 16 26 995.6 995.5 6.8
30/04:50am 7.4 1.4 7.0 97 0.2 N 28 54 15 29 995.5 995.4 6.8
30/04:30am 7.3 1.2 6.7 96 0.3 N 28 39 15 21 995.4 995.3 6.6
30/04:18am 7.4 1.3 6.7 95 0.3 N 28 46 15 25 995.5 995.4 6.4
30/04:00am 7.3 1.6 6.7 96 0.3 N 26 39 14 21 995.6 995.5 6.2
30/03:30am 7.4 1.7 6.8 96 0.3 N 26 41 14 22 995.7 995.6 5.2
30/03:00am 7.5 2.6 6.8 95 0.3 N 22 32 12 17 996.0 995.9 3.8
30/02:30am 7.7 3.0 6.2 90 0.7 N 20 32 11 17 996.2 996.2 2.8
30/02:00am 8.0 2.5 5.8 86 1.0 NNW 24 35 13 19 996.6 996.6 2.4
30/01:30am 8.0 4.5 5.6 85 1.1 NNW 13 19 7 10 996.9 996.9 2.2
30/01:00am 8.3 4.5 5.6 83 1.3 N 15 26 8 14 997.1 997.1 1.8
30/12:30am 8.4 4.1 5.3 81 1.4 N 17 24 9 13 997.4 997.4 1.8
30/12:00am 8.4 5.0 5.7 83 1.3 N 13 22 7 12 997.6 997.6 1.6
 
Date/Time
EST
Temp
°C
App
Temp
°C
Dew
Point
°C
Rel
Hum
%
Delta-T
°C
Wind Press
QNH
hPa
Press
MSL
hPa
Rain since
9am
mm
Dir  Spd
km/h
Gust
km/h
Spd
kts
Gust
kts
29/11:30pm 9.0 5.4 5.0 76 1.8 N 13 17 7 9 997.8 997.8 1.4
29/11:00pm 9.0 5.7 4.8 75 1.9 N 11 20 6 11 998.1 998.0 1.4
29/10:30pm 8.9 6.0 4.7 75 1.9 N 9 17 5 9 998.3 998.2 1.4
29/10:00pm 8.7 4.7 4.7 76 1.8 NW 15 20 8 11 998.4 998.4 1.4
29/09:30pm 8.8 5.6 5.2 78 1.7 NW 11 15 6 8 998.5 998.5 1.4
29/09:00pm 9.0 5.9 5.6 79 1.6 NW 11 17 6 9 998.3 998.2 1.4
29/08:30pm 9.2 6.6 6.3 82 1.4 NNW 9 13 5 7 998.2 998.1 1.4
29/08:00pm 9.4 7.1 5.6 77 1.8 WNW 7 15 4 8 998.1 998.0 1.2
29/07:30pm 9.5 7.2 5.9 78 1.7 NW 7 11 4 6 997.7 997.7 0.8
29/07:00pm 9.4 6.4 6.1 80 1.6 WNW 11 17 6 9 997.1 997.1 0.8
29/06:30pm 10.8 6.2 3.6 61 3.2 NW 17 35 9 19 996.4 996.4 0.4
29/06:00pm 11.9 7.7 3.9 58 3.7 NNW 15 20 8 11 996.0 995.9 0.2
29/05:30pm 12.5 8.0 4.2 57 3.8 NNW 17 22 9 12 995.9 995.8 0.2
29/05:00pm 12.8 9.0 4.0 55 4.1 NNW 13 20 7 11 995.7 995.6 0.2
29/04:30pm 13.5 7.8 3.0 49 4.8 NW 22 33 12 18 995.5 995.4 0.2
29/04:00pm 13.7 10.1 5.1 56 4.1 NW 13 19 7 10 995.4 995.3 0.2
29/03:30pm 13.8 8.7 4.1 52 4.5 NW 20 33 11 18 995.3 995.2 0.2
29/03:00pm 15.7 10.9 5.6 51 5.0 NW 20 35 11 19 995.4 995.3 0.2
29/02:30pm 14.2 8.9 5.0 54 4.4 NW 22 35 12 19 995.6 995.5 0.2
29/02:21pm 13.7 7.1 4.3 53 4.4 NW 28 46 15 25 995.6 995.5 0.2
29/02:00pm 14.0 8.4 5.4 56 4.2 NW 24 35 13 19 995.7 995.6 0.2
29/01:30pm 14.6 9.0 7.2 61 3.7 NW 26 39 14 21 995.9 995.8 0.2
29/01:00pm 14.3 9.1 7.1 62 3.6 NW 24 39 13 21 996.1 996.0 0.2
29/12:30pm 13.6 8.7 6.7 63 3.4 NW 22 39 12 21 996.4 996.4 0.0
29/12:00pm 13.3 7.4 5.7 60 3.7 NW 26 37 14 20 996.6 996.6 0.0
29/11:30am 13.7 7.8 7.5 66 3.1 NW 28 43 15 23 996.7 996.7 0.0
29/11:00am 12.9 7.5 7.8 71 2.6 NW 26 39 14 21 996.9 996.9 0.0
29/10:30am 11.7 7.4 7.0 73 2.3 NNW 19 28 10 15 997.4 997.4 0.0
29/10:00am 11.2 8.4 8.6 84 1.3 NNW 13 19 7 10 996.6 996.6 0.0
29/09:30am 10.1 6.8 8.2 88 0.9 NNW 15 20 8 11 997.2 997.2 0.0
29/09:00am 10.1 7.4 9.0 93 0.6 NW 13 24 7 13 996.8 996.8 16.4
29/08:30am 9.7 5.3 8.8 94 0.5 NW 22 48 12 26 997.1 997.1 16.0
29/08:18am 10.8 5.4 9.4 91 0.7 NNW 28 57 15 31 997.0 997.0 15.0
29/08:16am 11.3 6.4 10.0 92 0.7 N 26 57 14 31 996.7 996.7 15.0
29/08:15am 11.7 8.0 11.4 98 0.2 N 22 46 12 25 996.6 996.6 15.0
29/08:00am 11.6 9.6 11.4 99 0.1 N 13 20 7 11 996.0 995.9 13.4
29/07:30am 11.5 8.7 11.3 99 0.1 N 17 28 9 15 996.0 995.9 11.0
29/07:00am 11.1 7.8 10.9 99 0.1 NNE 19 26 10 14 996.0 995.9 9.2
29/06:30am 11.0 7.6 10.7 98 0.2 NNE 19 26 10 14 996.3 996.3 7.4
29/06:00am 10.8 6.7 10.2 96 0.3 NNE 22 30 12 16 996.8 996.8 7.2
29/05:30am 10.9 5.3 10.0 94 0.5 NNE 30 43 16 23 997.1 997.1 6.4
29/05:01am 11.4 6.1 9.7 89 0.9 NNE 28 48 15 26 997.1 997.1 4.6
29/05:00am 11.3 6.3 9.7 90 0.8 NNE 26 48 14 26 997.1 997.1 4.6
29/04:30am 11.4 7.5 9.5 88 1.0 NNE 20 32 11 17 998.3 998.2 3.4
29/04:00am 10.8 6.8 8.9 88 1.0 NNE 20 30 11 16 998.4 998.4 2.6
29/03:30am 11.4 6.6 8.8 84 1.3 NE 24 32 13 17 998.4 998.4 2.0
29/03:00am 10.6 8.6 8.7 88 1.0 NNE 9 15 5 8 1000.1 1000.1 1.0
29/02:30am 11.6 9.4 7.7 77 1.9 N 9 15 5 8 1001.0 1001.0 0.2
29/02:00am 12.8 8.5 6.8 67 3.0 N 19 30 10 16 1001.3 1001.3 0.0
29/01:30am 12.6 8.5 6.4 66 3.0 NNE 17 24 9 13 1001.7 1001.7 0.0
29/01:00am 12.3 8.2 6.4 67 2.9 NE 17 22 9 12 1002.2 1002.2 0.0
29/12:30am 12.6 7.5 6.0 64 3.2 ENE 22 30 12 16 1002.8 1002.9 0.0
29/12:00am 12.6 7.2 6.4 66 3.0 NE 24 32 13 17 1003.8 1003.8 0.0
 
Date/Time
EST
Temp
°C
App
Temp
°C
Dew
Point
°C
Rel
Hum
%
Delta-T
°C
Wind Press
QNH
hPa
Press
MSL
hPa
Rain since
9am
mm
Dir  Spd
km/h
Gust
km/h
Spd
kts
Gust
kts
28/11:30pm 11.3 7.4 7.0 75 2.1 NE 17 22 9 12 1004.7 1004.7 0.0
28/11:00pm 7.4 5.8 6.5 94 0.4 N 4 9 2 5 1005.5 1005.6 0.0
28/10:30pm 7.4 5.7 5.9 90 0.7 SW 4 7 2 4 1005.5 1005.6 0.0
28/10:00pm 7.4 6.4 5.5 88 0.9 CALM 0 0 0 0 1005.9 1006.0 0.0
28/09:30pm 7.9 5.7 6.0 88 0.9 N 7 9 4 5 1006.1 1006.2 0.0
28/09:00pm 8.4 7.7 7.0 91 0.7 CALM 0 6 0 3 1006.5 1006.5 0.0
28/08:30pm 9.0 8.4 7.3 89 0.8 CALM 0 0 0 0 1007.0 1007.0 0.0
28/08:00pm 9.8 9.2 7.2 84 1.3 CALM 0 0 0 0 1007.3 1007.4 0.0
28/07:30pm 10.3 8.9 7.4 82 1.4 NNW 4 7 2 4 1007.3 1007.4 0.0
28/07:00pm 11.1 9.1 7.2 77 1.9 N 7 9 4 5 1007.2 1007.2 0.0
28/06:30pm 12.2 10.4 7.3 72 2.4 N 6 7 3 4 1007.3 1007.4 0.0
28/06:00pm 13.2 11.2 7.0 66 3.1 NE 7 11 4 6 1007.4 1007.5 0.0
28/05:30pm 15.0 12.2 6.8 58 4.1 NNE 11 15 6 8 1007.4 1007.5 0.0
28/05:00pm 16.3 13.1 6.7 53 4.8 NNE 13 17 7 9 1007.4 1007.5 0.0
28/04:30pm 16.5 12.0 4.2 44 5.9 NNE 17 20 9 11 1007.7 1007.8 0.0
28/04:00pm 17.3 13.6 6.2 48 5.6 NNE 15 20 8 11 1007.7 1007.8 0.0
28/03:30pm 17.4 14.0 7.5 52 5.1 NE 15 24 8 13 1008.2 1008.3 0.0
28/03:00pm 16.9 12.8 4.6 44 6.0 NNE 15 24 8 13 1008.7 1008.8 0.0
28/02:30pm 17.3 13.8 7.4 52 5.1 NNE 15 22 8 12 1009.3 1009.3 0.0
28/02:00pm 16.6 13.2 6.1 50 5.2 NNE 13 19 7 10 1010.0 1010.1 0.0
28/01:30pm 16.6 13.7 6.7 52 5.0 NE 11 19 6 10 1011.1 1011.2 0.0
28/01:00pm 15.9 13.7 6.1 52 4.8 N 7 15 4 8 1011.6 1011.7 0.0
28/12:30pm 15.8 13.4 7.1 56 4.4 NE 9 15 5 8 1012.4 1012.5 0.0
28/12:00pm 15.8 14.3 8.5 62 3.8 N 6 15 3 8 1012.7 1012.8 0.0
28/11:30am 15.3 13.2 6.8 57 4.2 ESE 7 13 4 7 1013.3 1013.4 0.0
28/11:00am 14.4 12.8 6.5 59 3.9 NW 4 7 2 4 1013.8 1013.9 0.0
28/10:30am 13.6 11.4 5.5 58 3.9 N 6 11 3 6 1014.1 1014.3 0.0
28/10:00am 13.6 11.7 7.4 66 3.1 N 7 11 4 6 1014.4 1014.6 0.0
28/09:30am 13.1 12.0 7.1 67 3.0 SW 2 9 1 5 1014.7 1014.8 0.0
28/09:00am 11.6 10.4 8.1 79 1.7 ENE 4 7 2 4 1014.7 1014.8 0.2
28/08:30am 10.7 10.0 8.5 86 1.1 NNE 2 7 1 4 1015.0 1015.1 0.2
28/08:00am 8.1 7.4 7.0 93 0.5 CALM 0 0 0 0 1014.9 1015.0 0.2
28/07:30am 6.1 4.4 5.8 98 0.1 SSE 4 7 2 4 1015.0 1015.1 0.2
28/07:00am 3.9 1.4 3.8 99 0.0 S 6 7 3 4 1015.1 1015.2 0.2
28/06:30am 2.8 0.1 2.7 99 0.0 SSW 6 7 3 4 1015.1 1015.2 0.2
28/06:00am 1.6 -1.3 1.5 99 0.0 SSW 6 7 3 4 1014.9 1015.0 0.2
28/05:30am 1.4 -0.8 1.3 99 0.0 SSE 2 7 1 4 1014.5 1014.7 0.2
28/05:00am 1.5 -1.6 1.4 99 0.0 SSE 7 9 4 5 1014.3 1014.5 0.2
28/04:30am 1.7 -1.4 1.6 99 0.0 WSW 7 9 4 5 1014.1 1014.3 0.2
28/04:00am 1.7 -1.2 1.6 99 0.0 S 6 7 3 4 1013.9 1014.0 0.2
28/03:30am 2.3 -0.7 2.2 99 0.0 WSW 7 7 4 4 1014.0 1014.2 0.2
28/03:00am 2.8 -0.1 2.7 99 0.0 SSW 7 7 4 4 1014.1 1014.3 0.2

Other Formats:

Comma delimited format used in spreadsheet applications
http://www.bom.gov.au/fwo/IDN60801/IDN60801.94712.axf

JavaScript Object Notation format (JSON) in row-major order
http://www.bom.gov.au/fwo/IDN60801/IDN60801.94712.json